Time,TemperatureF,DewpointF,PressureIn,WindDirection,WindDirectionDegrees,WindSpeedMPH,WindSpeedGustMPH,Humidity,HourlyPrecipIn,Conditions,Clouds,dailyrainin,SoftwareType,DateUTC
2013-07-20 00:01:00,64.2,39.4,29.87,WNW,282,0.0,6.0,40,0.00,,,0.00,VWS V14.01,2013-07-20 06:01:00,
2013-07-20 00:06:00,64.0,39.2,29.87,WNW,282,0.0,2.0,40,0.00,,,0.00,VWS V14.01,2013-07-20 06:06:00,
2013-07-20 00:11:00,63.8,39.7,29.87,WNW,282,0.0,7.0,41,0.00,,,0.00,VWS V14.01,2013-07-20 06:11:00,
2013-07-20 00:16:00,63.5,39.4,29.87,WNW,282,0.0,7.0,41,0.00,,,0.00,VWS V14.01,2013-07-20 06:16:00,
2013-07-20 00:21:00,63.9,39.1,29.88,WNW,282,2.0,7.0,40,0.00,,,0.00,VWS V14.01,2013-07-20 06:21:00,
2013-07-20 00:26:00,64.2,40.0,29.87,WNW,282,0.0,7.0,41,0.00,,,0.00,VWS V14.01,2013-07-20 06:26:00,
2013-07-20 00:31:00,64.2,39.4,29.87,WNW,282,0.0,7.0,40,0.00,,,0.00,VWS V14.01,2013-07-20 06:31:00,
2013-07-20 00:36:00,63.8,39.7,29.87,WNW,282,4.0,5.0,41,0.00,,,0.00,VWS V14.01,2013-07-20 06:36:00,
2013-07-20 00:41:00,63.3,39.2,29.87,WNW,282,0.0,5.0,41,0.00,,,0.00,VWS V14.01,2013-07-20 06:41:00,
2013-07-20 00:46:00,62.9,39.5,29.87,WNW,282,0.0,5.0,42,0.00,,,0.00,VWS V14.01,2013-07-20 06:46:00,
2013-07-20 00:51:00,62.8,39.4,29.87,WNW,282,0.0,5.0,42,0.00,,,0.00,VWS V14.01,2013-07-20 06:51:00,
2013-07-20 00:56:00,62.6,39.2,29.87,WNW,282,0.0,5.0,42,0.00,,,0.00,VWS V14.01,2013-07-20 06:56:00,
2013-07-20 01:01:00,62.6,39.8,29.87,WNW,282,0.0,5.0,43,0.00,,,0.00,VWS V14.01,2013-07-20 07:01:00,
2013-07-20 01:06:00,62.5,39.7,29.87,WNW,282,0.0,0.0,43,0.00,,,0.00,VWS V14.01,2013-07-20 07:06:00,
2013-07-20 01:11:00,62.1,40.0,29.87,WNW,282,3.0,4.0,44,0.00,,,0.00,VWS V14.01,2013-07-20 07:11:00,
2013-07-20 01:16:00,61.0,40.7,29.87,WNW,282,6.0,7.0,47,0.00,,,0.00,VWS V14.01,2013-07-20 07:16:00,
2013-07-20 01:21:00,59.7,40.5,29.87,WNW,282,5.0,7.0,49,0.00,,,0.00,VWS V14.01,2013-07-20 07:21:00,
2013-07-20 01:26:00,59.1,40.0,29.87,WNW,282,3.0,7.0,49,0.00,,,0.00,VWS V14.01,2013-07-20 07:26:00,
2013-07-20 01:31:00,59.5,40.3,29.87,WNW,282,0.0,7.0,49,0.00,,,0.00,VWS V14.01,2013-07-20 07:31:00,
2013-07-20 01:36:00,59.6,39.9,29.87,WNW,282,1.0,2.0,48,0.00,,,0.00,VWS V14.01,2013-07-20 07:36:00,
2013-07-20 01:41:00,59.6,40.4,29.87,NE,51,3.0,4.0,49,0.00,,,0.00,VWS V14.01,2013-07-20 07:41:00,
2013-07-20 01:46:00,59.0,41.4,29.87,East,95,1.0,5.0,52,0.00,,,0.00,VWS V14.01,2013-07-20 07:46:00,
2013-07-20 01:51:00,58.3,40.8,29.87,East,95,0.0,5.0,52,0.00,,,0.00,VWS V14.01,2013-07-20 07:51:00,
2013-07-20 01:56:00,58.2,40.7,29.87,East,95,0.0,5.0,52,0.00,,,0.00,VWS V14.01,2013-07-20 07:56:00,
2013-07-20 02:01:00,57.8,41.3,29.87,East,95,1.0,5.0,54,0.00,,,0.00,VWS V14.01,2013-07-20 08:01:00,
2013-07-20 02:06:00,57.7,40.7,29.87,East,95,0.0,4.0,53,0.00,,,0.00,VWS V14.01,2013-07-20 08:06:00,
2013-07-20 02:11:00,57.9,40.9,29.87,East,95,0.0,4.0,53,0.00,,,0.00,VWS V14.01,2013-07-20 08:11:00,
2013-07-20 02:16:00,58.0,41.5,29.88,East,95,0.0,4.0,54,0.00,,,0.00,VWS V14.01,2013-07-20 08:16:00,
2013-07-20 02:21:00,58.0,40.5,29.87,East,95,0.0,4.0,52,0.00,,,0.00,VWS V14.01,2013-07-20 08:21:00,
2013-07-20 02:26:00,58.2,41.2,29.87,East,95,2.0,4.0,53,0.00,,,0.00,VWS V14.01,2013-07-20 08:26:00,
2013-07-20 02:31:00,58.1,41.1,29.88,East,95,0.0,4.0,53,0.00,,,0.00,VWS V14.01,2013-07-20 08:31:00,
2013-07-20 02:36:00,57.8,41.3,29.88,East,95,0.0,0.0,54,0.00,,,0.00,VWS V14.01,2013-07-20 08:36:00,
2013-07-20 02:41:00,57.8,40.8,29.88,East,95,0.0,1.0,53,0.00,,,0.00,VWS V14.01,2013-07-20 08:41:00,
2013-07-20 02:46:00,57.9,40.9,29.88,East,95,0.0,1.0,53,0.00,,,0.00,VWS V14.01,2013-07-20 08:46:00,
2013-07-20 02:51:00,58.1,41.1,29.87,East,95,0.0,1.0,53,0.00,,,0.00,VWS V14.01,2013-07-20 08:51:00,
2013-07-20 02:56:00,58.1,41.1,29.87,East,96,0.0,1.0,53,0.00,,,0.00,VWS V14.01,2013-07-20 08:56:00,
2013-07-20 03:01:00,57.8,41.3,29.87,East,96,0.0,2.0,54,0.00,,,0.00,VWS V14.01,2013-07-20 09:01:00,
2013-07-20 03:06:00,57.6,41.1,29.87,East,96,1.0,1.0,54,0.00,,,0.00,VWS V14.01,2013-07-20 09:06:00,
2013-07-20 03:11:00,57.6,41.6,29.87,SSW,213,0.0,4.0,55,0.00,,,0.00,VWS V14.01,2013-07-20 09:11:00,
2013-07-20 03:16:00,58.0,41.9,29.87,West,275,2.0,5.0,55,0.00,,,0.00,VWS V14.01,2013-07-20 09:16:00,
2013-07-20 03:21:00,58.1,42.0,29.87,WSW,249,1.0,5.0,55,0.00,,,0.00,VWS V14.01,2013-07-20 09:21:00,
2013-07-20 03:26:00,58.2,42.1,29.87,WSW,249,0.0,5.0,55,0.00,,,0.00,VWS V14.01,2013-07-20 09:26:00,
2013-07-20 03:31:00,58.1,42.0,29.87,WSW,246,2.0,6.0,55,0.00,,,0.00,VWS V14.01,2013-07-20 09:31:00,
2013-07-20 03:36:00,57.7,41.7,29.87,West,278,0.0,6.0,55,0.00,,,0.00,VWS V14.01,2013-07-20 09:36:00,
2013-07-20 03:41:00,57.4,41.4,29.87,West,278,0.0,6.0,55,0.00,,,0.00,VWS V14.01,2013-07-20 09:41:00,
2013-07-20 03:46:00,57.0,41.5,29.87,West,278,0.0,6.0,56,0.00,,,0.00,VWS V14.01,2013-07-20 09:46:00,
2013-07-20 03:51:00,56.6,41.6,29.87,West,278,0.0,6.0,57,0.00,,,0.00,VWS V14.01,2013-07-20 09:51:00,
2013-07-20 03:56:00,56.4,41.4,29.87,West,278,0.0,6.0,57,0.00,,,0.00,VWS V14.01,2013-07-20 09:56:00,
2013-07-20 04:01:00,56.2,41.6,29.87,West,278,0.0,6.0,58,0.00,,,0.00,VWS V14.01,2013-07-20 10:01:00,
2013-07-20 04:06:00,55.7,42.5,29.87,WNW,293,0.0,1.0,61,0.00,,,0.00,VWS V14.01,2013-07-20 10:06:00,
2013-07-20 04:11:00,55.2,42.0,29.87,WNW,293,0.0,1.0,61,0.00,,,0.00,VWS V14.01,2013-07-20 10:11:00,
2013-07-20 04:16:00,54.9,42.1,29.87,WNW,293,0.0,1.0,62,0.00,,,0.00,VWS V14.01,2013-07-20 10:16:00,
2013-07-20 04:21:00,54.8,41.6,29.87,WNW,293,0.0,1.0,61,0.00,,,0.00,VWS V14.01,2013-07-20 10:21:00,
2013-07-20 04:26:00,54.7,41.5,29.87,WNW,293,0.0,1.0,61,0.00,,,0.00,VWS V14.01,2013-07-20 10:26:00,
2013-07-20 04:31:00,54.6,41.4,29.86,WNW,293,0.0,1.0,61,0.00,,,0.00,VWS V14.01,2013-07-20 10:31:00,
2013-07-20 04:36:00,54.8,41.6,29.86,WNW,293,0.0,4.0,61,0.00,,,0.00,VWS V14.01,2013-07-20 10:36:00,
2013-07-20 04:41:00,54.6,41.9,29.86,WNW,293,0.0,4.0,62,0.00,,,0.00,VWS V14.01,2013-07-20 10:41:00,
2013-07-20 04:46:00,54.2,41.5,29.86,WNW,293,2.0,4.0,62,0.00,,,0.00,VWS V14.01,2013-07-20 10:46:00,
2013-07-20 04:51:00,53.7,42.2,29.87,WNW,293,0.0,4.0,65,0.00,,,0.00,VWS V14.01,2013-07-20 10:51:00,
2013-07-20 04:56:00,53.5,41.6,29.87,WNW,293,0.0,4.0,64,0.00,,,0.00,VWS V14.01,2013-07-20 10:56:00,
2013-07-20 05:01:00,53.5,42.4,29.87,WNW,293,0.0,4.0,66,0.00,,,0.00,VWS V14.01,2013-07-20 11:01:00,
2013-07-20 05:06:00,53.5,42.4,29.87,WNW,293,0.0,0.0,66,0.00,,,0.00,VWS V14.01,2013-07-20 11:06:00,
2013-07-20 05:11:00,53.4,41.9,29.87,WNW,293,0.0,0.0,65,0.00,,,0.00,VWS V14.01,2013-07-20 11:11:00,
2013-07-20 05:16:00,53.5,42.4,29.87,WNW,293,0.0,0.0,66,0.00,,,0.00,VWS V14.01,2013-07-20 11:16:00,
2013-07-20 05:21:00,53.3,42.2,29.86,WNW,293,0.0,1.0,66,0.00,,,0.00,VWS V14.01,2013-07-20 11:21:00,
2013-07-20 05:26:00,53.1,42.1,29.87,WNW,293,0.0,1.0,66,0.00,,,0.00,VWS V14.01,2013-07-20 11:26:00,
2013-07-20 05:31:00,53.1,42.5,29.87,WNW,293,2.0,4.0,67,0.00,,,0.00,VWS V14.01,2013-07-20 11:31:00,
2013-07-20 05:36:00,53.4,42.3,29.87,WNW,293,0.0,4.0,66,0.00,,,0.00,VWS V14.01,2013-07-20 11:36:00,
2013-07-20 05:41:00,53.4,42.3,29.87,WNW,293,0.0,4.0,66,0.00,,,0.00,VWS V14.01,2013-07-20 11:41:00,
2013-07-20 05:46:00,53.3,41.8,29.87,WNW,293,0.0,4.0,65,0.00,,,0.00,VWS V14.01,2013-07-20 11:46:00,
2013-07-20 05:51:00,53.5,42.0,29.87,WNW,293,0.0,4.0,65,0.00,,,0.00,VWS V14.01,2013-07-20 11:51:00,
2013-07-20 05:56:00,53.4,42.3,29.87,WNW,293,0.0,0.0,66,0.00,,,0.00,VPLive 1.2.5.27,2013-07-20 11:56:00,
2013-07-20 06:01:00,52.9,42.3,29.87,WNW,293,0.0,4.0,67,0.00,,,0.00,VWS V14.01,2013-07-20 12:01:00,
2013-07-20 06:06:00,51.7,42.6,29.87,North,355,0.0,3.0,71,0.00,,,0.00,VWS V14.01,2013-07-20 12:06:00,
2013-07-20 06:11:00,50.8,42.1,29.87,North,355,0.0,3.0,72,0.00,,,0.00,VWS V14.01,2013-07-20 12:11:00,
2013-07-20 06:16:00,50.4,42.1,29.87,North,355,0.0,3.0,73,0.00,,,0.00,VWS V14.01,2013-07-20 12:16:00,
2013-07-20 06:21:00,50.4,42.4,29.87,North,355,0.0,3.0,74,0.00,,,0.00,VWS V14.01,2013-07-20 12:21:00,
2013-07-20 06:26:00,50.5,42.5,29.87,North,355,0.0,3.0,74,0.00,,,0.00,VWS V14.01,2013-07-20 12:26:00,
2013-07-20 06:31:00,50.6,42.6,29.87,North,355,0.0,3.0,74,0.00,,,0.00,VWS V14.01,2013-07-20 12:31:00,
2013-07-20 06:36:00,50.7,43.1,29.87,North,355,0.0,0.0,75,0.00,,,0.00,VWS V14.01,2013-07-20 12:36:00,
2013-07-20 06:41:00,50.5,42.9,29.87,North,355,0.0,1.0,75,0.00,,,0.00,VWS V14.01,2013-07-20 12:41:00,
2013-07-20 06:46:00,50.3,42.7,29.87,North,355,0.0,1.0,75,0.00,,,0.00,VWS V14.01,2013-07-20 12:46:00,
2013-07-20 06:51:00,50.3,42.3,29.87,North,355,0.0,1.0,74,0.00,,,0.00,VWS V14.01,2013-07-20 12:51:00,
2013-07-20 06:56:00,50.5,42.5,29.87,North,355,0.0,1.0,74,0.00,,,0.00,VWS V14.01,2013-07-20 12:56:00,
2013-07-20 07:01:00,51.0,43.0,29.87,North,355,1.0,1.0,74,0.00,,,0.00,VWS V14.01,2013-07-20 13:01:00,
2013-07-20 07:06:00,51.4,43.0,29.88,North,355,0.0,3.0,73,0.00,,,0.00,VPLive 1.2.5.27,2013-07-20 13:06:00,
2013-07-20 07:11:00,51.3,43.3,29.88,North,355,0.0,2.0,74,0.00,,,0.00,VWS V14.01,2013-07-20 13:11:00,
2013-07-20 07:16:00,50.9,43.6,29.87,North,355,0.0,2.0,76,0.00,,,0.00,VWS V14.01,2013-07-20 13:16:00,
2013-07-20 07:21:00,50.8,43.2,29.87,North,355,0.0,2.0,75,0.00,,,0.00,VWS V14.01,2013-07-20 13:21:00,
2013-07-20 07:26:00,51.1,43.5,29.88,North,355,0.0,2.0,75,0.00,,,0.00,VWS V14.01,2013-07-20 13:26:00,
2013-07-20 07:31:00,51.5,43.8,29.87,North,355,2.0,3.0,75,0.00,,,0.00,VWS V14.01,2013-07-20 13:31:00,
2013-07-20 07:36:00,52.2,44.2,29.88,ENE,65,1.0,1.0,74,0.00,,,0.00,VWS V14.01,2013-07-20 13:36:00,
2013-07-20 07:41:00,52.7,44.3,29.88,ENE,65,0.0,1.0,73,0.00,,,0.00,VWS V14.01,2013-07-20 13:41:00,
2013-07-20 07:46:00,52.9,45.2,29.88,ENE,67,0.0,1.0,75,0.00,,,0.00,VWS V14.01,2013-07-20 13:46:00,
2013-07-20 07:51:00,53.5,45.8,29.88,ENE,67,0.0,1.0,75,0.00,,,0.00,VWS V14.01,2013-07-20 13:51:00,
2013-07-20 07:56:00,54.4,45.9,29.88,ENE,67,0.0,1.0,73,0.00,,,0.00,VWS V14.01,2013-07-20 13:56:00,
2013-07-20 08:01:00,55.1,46.2,29.88,ENE,67,0.0,1.0,72,0.00,,,0.00,VWS V14.01,2013-07-20 14:01:00,
2013-07-20 08:06:00,56.0,46.0,29.88,ENE,67,0.0,0.0,69,0.00,,,0.00,VWS V14.01,2013-07-20 14:06:00,
2013-07-20 08:11:00,56.6,45.8,29.88,ENE,67,0.0,0.0,67,0.00,,,0.00,VWS V14.01,2013-07-20 14:11:00,
2013-07-20 08:16:00,57.0,45.4,29.88,ENE,67,0.0,1.0,65,0.00,,,0.00,VWS V14.01,2013-07-20 14:16:00,
2013-07-20 08:21:00,57.5,45.8,29.88,ENE,67,0.0,1.0,65,0.00,,,0.00,VWS V14.01,2013-07-20 14:21:00,
2013-07-20 08:26:00,57.9,46.6,29.88,ENE,67,0.0,0.0,66,0.00,,,0.00,VPLive 1.2.5.27,2013-07-20 14:26:00,
2013-07-20 08:31:00,58.2,46.9,29.87,ENE,67,0.0,1.0,66,0.00,,,0.00,VWS V14.01,2013-07-20 14:31:00,
2013-07-20 08:36:00,58.7,47.4,29.87,ENE,67,0.0,1.0,66,0.00,,,0.00,VWS V14.01,2013-07-20 14:36:00,
2013-07-20 08:41:00,59.0,47.3,29.87,ENE,67,0.0,1.0,65,0.00,,,0.00,VWS V14.01,2013-07-20 14:41:00,
2013-07-20 08:46:00,59.6,46.6,29.87,ENE,67,0.0,2.0,62,0.00,,,0.00,VWS V14.01,2013-07-20 14:46:00,
2013-07-20 08:51:00,60.1,47.0,29.87,ENE,67,0.0,2.0,62,0.00,,,0.00,VWS V14.01,2013-07-20 14:51:00,
2013-07-20 08:56:00,60.7,47.2,29.87,ENE,67,0.0,2.0,61,0.00,,,0.00,VWS V14.01,2013-07-20 14:56:00,
2013-07-20 09:01:00,61.3,47.3,29.87,ENE,67,0.0,2.0,60,0.00,,,0.00,VWS V14.01,2013-07-20 15:01:00,
2013-07-20 09:06:00,62.0,47.5,29.87,ENE,67,0.0,0.0,59,0.00,,,0.00,VWS V14.01,2013-07-20 15:06:00,
2013-07-20 09:11:00,63.2,48.2,29.87,ENE,67,0.0,0.0,58,0.00,,,0.00,VWS V14.01,2013-07-20 15:11:00,
2013-07-20 09:16:00,64.0,46.5,29.87,ENE,67,0.0,2.0,53,0.00,,,0.00,VWS V14.01,2013-07-20 15:16:00,
2013-07-20 09:21:00,64.7,46.7,29.87,ENE,67,0.0,2.0,52,0.00,,,0.00,VWS V14.01,2013-07-20 15:21:00,
2013-07-20 09:26:00,65.4,46.8,29.87,ENE,67,0.0,2.0,51,0.00,,,0.00,VWS V14.01,2013-07-20 15:26:00,
2013-07-20 09:31:00,65.9,47.8,29.87,ENE,67,0.0,2.0,52,0.00,,,0.00,VWS V14.01,2013-07-20 15:31:00,
2013-07-20 09:36:00,66.7,49.0,29.87,ENE,67,0.0,1.0,53,0.00,,,0.00,VWS V14.01,2013-07-20 15:36:00,
2013-07-20 09:41:00,67.8,49.5,29.87,ENE,67,0.0,2.0,52,0.00,,,0.00,VWS V14.01,2013-07-20 15:41:00,
2013-07-20 09:46:00,68.5,49.7,29.86,East,82,2.0,4.0,51,0.00,,,0.00,VWS V14.01,2013-07-20 15:46:00,
2013-07-20 09:51:00,69.1,49.7,29.86,East,92,4.0,5.0,50,0.00,,,0.00,VWS V14.01,2013-07-20 15:51:00,
2013-07-20 09:56:00,69.4,49.4,29.86,ENE,76,3.0,4.0,49,0.00,,,0.00,VPLive 1.2.5.27,2013-07-20 15:56:00,
2013-07-20 10:01:00,69.8,49.8,29.86,ENE,70,0.0,5.0,49,0.00,,,0.00,VWS V14.01,2013-07-20 16:01:00,
2013-07-20 10:06:00,70.1,49.0,29.85,ENE,71,4.0,7.0,47,0.00,,,0.00,VWS V14.01,2013-07-20 16:06:00,
2013-07-20 10:11:00,70.8,49.0,29.85,ENE,70,4.0,7.0,46,0.00,,,0.00,VWS V14.01,2013-07-20 16:11:00,
2013-07-20 10:16:00,71.1,48.7,29.85,ENE,73,1.0,7.0,45,0.00,,,0.00,VWS V14.01,2013-07-20 16:16:00,
2013-07-20 10:21:00,71.7,49.8,29.85,ENE,71,3.0,8.0,46,0.00,,,0.00,VWS V14.01,2013-07-20 16:21:00,
2013-07-20 10:26:00,72.0,49.5,29.85,East,88,3.0,8.0,45,0.00,,,0.00,VWS V14.01,2013-07-20 16:26:00,
2013-07-20 10:31:00,72.4,49.3,29.85,NE,48,4.0,8.0,44,0.00,,,0.00,VWS V14.01,2013-07-20 16:31:00,
2013-07-20 10:37:00,72.7,51.3,29.85,East,91,7.0,8.0,47,0.00,,,0.00,VWS V14.01,2013-07-20 16:37:00,
2013-07-20 10:42:00,72.9,49.7,29.84,ENE,69,2.0,10.0,44,0.00,,,0.00,VWS V14.01,2013-07-20 16:42:00,
2013-07-20 10:47:00,73.3,50.1,29.84,East,90,6.0,10.0,44,0.00,,,0.00,VWS V14.01,2013-07-20 16:47:00,
2013-07-20 10:52:00,73.5,49.7,29.84,ENE,74,7.0,10.0,43,0.00,,,0.00,VWS V14.01,2013-07-20 16:52:00,
2013-07-20 10:57:00,73.9,50.6,29.84,East,90,7.0,10.0,44,0.00,,,0.00,VWS V14.01,2013-07-20 16:57:00,
2013-07-20 11:03:00,74.1,50.8,29.84,East,93,7.0,8.0,44,0.00,,,0.00,VWS V14.01,2013-07-20 17:03:00,
2013-07-20 11:08:00,74.4,51.1,29.84,East,85,5.0,11.0,44,0.00,,,0.00,VPLive 1.2.5.27,2013-07-20 17:08:00,
2013-07-20 11:13:00,75.2,50.5,29.83,ENE,66,5.0,8.0,42,0.00,,,0.00,VPLive 1.2.5.27,2013-07-20 17:13:00,
2013-07-20 11:18:00,75.3,51.3,29.83,ENE,59,8.0,12.0,43,0.00,,,0.00,VWS V14.01,2013-07-20 17:18:00,
2013-07-20 11:23:00,75.8,51.7,29.83,East,97,8.0,11.0,43,0.00,,,0.00,VPLive 1.2.5.27,2013-07-20 17:23:00,
2013-07-20 11:28:00,76.2,52.1,29.83,ENE,73,8.0,11.0,43,0.00,,,0.00,VPLive 1.2.5.27,2013-07-20 17:28:00,
2013-07-20 11:33:00,76.7,51.2,29.83,East,84,8.0,10.0,41,0.00,,,0.00,VWS V14.01,2013-07-20 17:33:00,
2013-07-20 11:38:00,76.8,52.6,29.82,East,85,6.0,11.0,43,0.00,,,0.00,VWS V14.01,2013-07-20 17:38:00,
2013-07-20 11:43:00,77.0,51.5,29.82,NE,44,6.0,11.0,41,0.00,,,0.00,VWS V14.01,2013-07-20 17:43:00,
2013-07-20 11:48:00,77.5,52.6,29.82,ENE,69,5.0,11.0,42,0.00,,,0.00,VWS V14.01,2013-07-20 17:48:00,
2013-07-20 11:53:00,77.7,51.5,29.82,ENE,73,11.0,13.0,40,0.00,,,0.00,VWS V14.01,2013-07-20 17:53:00,
2013-07-20 11:58:00,78.2,52.6,29.82,East,92,6.0,13.0,41,0.00,,,0.00,VWS V14.01,2013-07-20 17:58:00,
2013-07-20 12:04:00,78.7,53.0,29.81,ENE,71,5.0,8.0,41,0.00,,,0.00,VWS V14.01,2013-07-20 18:04:00,
2013-07-20 12:09:00,79.2,53.5,29.80,East,96,5.0,11.0,41,0.00,,,0.00,VWS V14.01,2013-07-20 18:09:00,
2013-07-20 12:14:00,80.1,53.6,29.80,ENE,78,8.0,11.0,40,0.00,,,0.00,VWS V14.01,2013-07-20 18:14:00,
2013-07-20 12:19:00,80.6,54.1,29.80,East,87,5.0,11.0,40,0.00,,,0.00,VWS V14.01,2013-07-20 18:19:00,
2013-07-20 12:24:00,81.6,52.8,29.80,ENE,64,4.0,11.0,37,0.00,,,0.00,VWS V14.01,2013-07-20 18:24:00,
2013-07-20 12:31:00,81.4,54.1,29.79,ENE,62,7.0,14.0,39,0.00,,,0.00,VWS V14.01,2013-07-20 18:31:00,
2013-07-20 12:36:00,80.9,53.7,29.79,NE,53,8.0,12.0,39,0.00,,,0.00,VWS V14.01,2013-07-20 18:36:00,
2013-07-20 12:41:00,81.5,54.9,29.79,ESE,104,5.0,13.0,40,0.00,,,0.00,VWS V14.01,2013-07-20 18:41:00,
2013-07-20 12:46:00,82.2,54.1,29.79,East,95,7.0,12.0,38,0.00,,,0.00,VPLive 1.2.5.27,2013-07-20 18:46:00,
2013-07-20 12:51:00,82.0,52.4,29.79,ENE,62,10.0,10.0,36,0.00,,,0.00,VPLive 1.2.5.27,2013-07-20 18:51:00,
2013-07-20 12:56:00,81.7,51.4,29.79,East,92,5.0,11.0,35,0.00,,,0.00,VPLive 1.2.5.27,2013-07-20 18:56:00,
2013-07-20 13:02:00,82.7,52.3,29.78,East,88,3.0,7.0,35,0.00,,,0.00,VPLive 1.2.5.27,2013-07-20 19:02:00,
2013-07-20 13:07:00,83.2,49.5,29.78,SSE,151,4.0,7.0,31,0.00,,,0.00,VWS V14.01,2013-07-20 19:07:00,
2013-07-20 13:12:00,84.1,49.3,29.78,WSW,248,2.0,7.0,30,0.00,,,0.00,VWS V14.01,2013-07-20 19:12:00,
2013-07-20 13:18:00,84.8,48.1,29.78,South,183,0.0,5.0,28,0.00,,,0.00,VPLive 1.2.5.27,2013-07-20 19:18:00,
2013-07-20 13:23:00,85.5,47.7,29.77,East,92,1.0,7.0,27,0.00,,,0.00,VWS V14.01,2013-07-20 19:23:00,
2013-07-20 13:28:00,86.3,44.2,29.77,ESE,107,1.0,8.0,23,0.00,,,0.00,VWS V14.01,2013-07-20 19:28:00,
2013-07-20 13:33:00,86.4,49.5,29.77,NE,45,8.0,12.0,28,0.00,,,0.00,VWS V14.01,2013-07-20 19:33:00,
2013-07-20 13:39:00,85.5,48.7,29.77,ENE,76,6.0,12.0,28,0.00,,,0.00,VWS V14.01,2013-07-20 19:39:00,
2013-07-20 13:44:00,85.5,49.7,29.77,ENE,70,8.0,14.0,29,0.00,,,0.00,VWS V14.01,2013-07-20 19:44:00,
2013-07-20 13:49:00,86.2,51.2,29.77,East,92,8.0,15.0,30,0.00,,,0.00,VWS V14.01,2013-07-20 19:49:00,
2013-07-20 13:55:00,86.6,45.5,29.77,SSE,157,5.0,15.0,24,0.00,,,0.00,VWS V14.01,2013-07-20 19:55:00,
2013-07-20 14:00:00,86.6,46.6,29.76,ENE,78,5.0,8.0,25,0.00,,,0.00,VPLive 1.2.5.27,2013-07-20 20:00:00,
2013-07-20 14:05:00,86.3,52.1,29.76,ESE,111,5.0,12.0,31,0.00,,,0.00,VPLive 1.2.5.27,2013-07-20 20:05:00,
2013-07-20 14:10:00,86.4,51.3,29.76,East,84,5.0,9.0,30,0.00,,,0.00,VPLive 1.2.5.27,2013-07-20 20:10:00,
2013-07-20 14:16:00,86.9,50.8,29.76,SW,219,6.0,12.0,29,0.00,,,0.00,VWS V14.01,2013-07-20 20:16:00,
2013-07-20 14:23:00,87.1,42.4,29.76,West,267,6.0,12.0,21,0.00,,,0.00,VPLive 1.2.5.27,2013-07-20 20:23:00,
2013-07-20 14:28:00,87.5,40.2,29.75,NNE,27,12.0,16.0,19,0.00,,,0.00,VWS V14.01,2013-07-20 20:28:00,
2013-07-20 14:35:00,87.1,39.9,29.75,WNW,287,10.0,14.0,19,0.00,,,0.00,VWS V14.01,2013-07-20 20:35:00,
2013-07-20 14:41:00,87.5,41.5,29.75,NW,317,11.0,16.0,20,0.00,,,0.00,VWS V14.01,2013-07-20 20:41:00,
2013-07-20 14:46:00,87.6,40.2,29.75,West,259,11.0,15.0,19,0.00,,,0.00,VPLive 1.2.5.27,2013-07-20 20:46:00,
2013-07-20 14:51:00,87.7,40.4,29.75,SW,232,1.0,16.0,19,0.00,,,0.00,VWS V14.01,2013-07-20 20:51:00,
2013-07-20 14:58:00,88.1,40.7,29.75,NNW,338,13.0,16.0,19,0.00,,,0.00,VWS V14.01,2013-07-20 20:58:00,
2013-07-20 15:03:00,88.1,42.0,29.74,WNW,283,10.0,10.0,20,0.00,,,0.00,VWS V14.01,2013-07-20 21:03:00,
2013-07-20 15:08:00,88.3,42.2,29.74,WNW,282,16.0,17.0,20,0.00,,,0.00,VWS V14.01,2013-07-20 21:08:00,
2013-07-20 15:14:00,88.5,39.6,29.74,West,266,13.0,17.0,18,0.00,,,0.00,VPLive 1.2.5.27,2013-07-20 21:14:00,
2013-07-20 15:19:00,88.4,40.9,29.74,West,267,9.0,17.0,19,0.00,,,0.00,VWS V14.01,2013-07-20 21:19:00,
2013-07-20 15:24:00,88.6,42.4,29.74,North,351,12.0,17.0,20,0.00,,,0.00,VWS V14.01,2013-07-20 21:24:00,
2013-07-20 15:29:00,88.6,41.1,29.74,NW,312,10.0,18.0,19,0.00,,,0.00,VWS V14.01,2013-07-20 21:29:00,
2013-07-20 15:34:00,88.4,40.9,29.73,NW,319,4.0,11.0,19,0.00,,,0.00,VWS V14.01,2013-07-20 21:34:00,
2013-07-20 15:40:00,89.0,42.8,29.73,WNW,287,9.0,12.0,20,0.00,,,0.00,VWS V14.01,2013-07-20 21:40:00,
2013-07-20 15:45:00,89.2,40.1,29.73,NW,315,8.0,17.0,18,0.00,,,0.00,VPLive 1.2.5.27,2013-07-20 21:45:00,
2013-07-20 15:50:00,88.2,39.4,29.73,WNW,301,6.0,22.0,18,0.00,,,0.00,VWS V14.01,2013-07-20 21:50:00,
2013-07-20 15:55:00,87.9,40.5,29.73,NNW,335,10.0,22.0,19,0.00,,,0.00,VWS V14.01,2013-07-20 21:55:00,
2013-07-20 16:00:00,88.5,39.6,29.73,NW,306,12.0,22.0,18,0.00,,,0.00,VWS V14.01,2013-07-20 22:00:00,
2013-07-20 16:05:00,89.2,40.2,29.72,WNW,300,8.0,17.0,18,0.00,,,0.00,VWS V14.01,2013-07-20 22:05:00,
2013-07-20 16:10:00,88.9,41.3,29.73,West,279,12.0,17.0,19,0.00,,,0.00,VWS V14.01,2013-07-20 22:10:00,
2013-07-20 16:15:00,88.7,39.8,29.72,WSW,256,14.0,17.0,18,0.00,,,0.00,VWS V14.01,2013-07-20 22:15:00,
2013-07-20 16:20:00,88.8,41.3,29.72,WNW,294,10.0,21.0,19,0.00,,,0.00,VWS V14.01,2013-07-20 22:20:00,
2013-07-20 16:25:00,88.5,42.3,29.72,West,264,14.0,21.0,20,0.00,,,0.00,VWS V14.01,2013-07-20 22:25:00,
2013-07-20 16:30:00,88.2,42.1,29.72,NW,304,16.0,29.0,20,0.00,,,0.00,VPLive 1.2.5.27,2013-07-20 22:30:00,
2013-07-20 16:35:00,88.4,42.3,29.72,WSW,257,11.0,16.0,20,0.00,,,0.00,VWS V14.01,2013-07-20 22:35:00,
2013-07-20 16:40:00,88.8,39.9,29.72,WNW,294,11.0,19.0,18,0.00,,,0.00,VWS V14.01,2013-07-20 22:40:00,
2013-07-20 16:45:00,88.8,42.6,29.72,West,278,11.0,21.0,20,0.00,,,0.00,VWS V14.01,2013-07-20 22:45:00,
2013-07-20 16:51:00,89.1,40.1,29.72,West,280,13.0,16.0,18,0.00,,,0.00,VPLive 1.2.5.27,2013-07-20 22:51:00,
2013-07-20 16:56:00,88.8,41.2,29.71,WNW,298,11.0,21.0,19,0.00,,,0.00,VPLive 1.2.5.27,2013-07-20 22:56:00,
2013-07-20 17:01:00,88.8,41.3,29.71,NW,304,14.0,21.0,19,0.00,,,0.00,VWS V14.01,2013-07-20 23:01:00,
2013-07-20 17:06:00,88.6,41.1,29.71,NNW,336,13.0,20.0,19,0.00,,,0.00,VWS V14.01,2013-07-20 23:06:00,
2013-07-20 17:11:00,88.6,41.1,29.70,NW,304,10.0,20.0,19,0.00,,,0.00,VWS V14.01,2013-07-20 23:11:00,
2013-07-20 17:17:00,89.0,42.8,29.70,NW,305,9.0,20.0,20,0.00,,,0.00,VWS V14.01,2013-07-20 23:17:00,
2013-07-20 17:22:00,88.9,41.3,29.70,NW,306,8.0,20.0,19,0.00,,,0.00,VWS V14.01,2013-07-20 23:22:00,
2013-07-20 17:27:00,88.6,42.4,29.70,WNW,287,6.0,20.0,20,0.00,,,0.00,VWS V14.01,2013-07-20 23:27:00,
2013-07-20 17:32:00,88.7,41.2,29.70,NNW,330,12.0,13.0,19,0.00,,,0.00,VWS V14.01,2013-07-20 23:32:00,
2013-07-20 17:37:00,88.5,41.0,29.70,NNW,340,11.0,16.0,19,0.00,,,0.00,VPLive 1.2.5.27,2013-07-20 23:37:00,
2013-07-20 17:42:00,88.3,42.1,29.69,North,355,10.0,14.0,20,0.00,,,0.00,VPLive 1.2.5.27,2013-07-20 23:42:00,
2013-07-20 17:47:00,88.8,41.3,29.70,NW,320,8.0,16.0,19,0.00,,,0.00,VWS V14.01,2013-07-20 23:47:00,
2013-07-20 17:53:00,88.8,41.2,29.70,NNW,340,5.0,12.0,19,0.00,,,0.00,VPLive 1.2.5.27,2013-07-20 23:53:00,
2013-07-20 17:58:00,89.0,44.0,29.69,WNW,302,7.0,16.0,21,0.00,,,0.00,VWS V14.01,2013-07-20 23:58:00,
2013-07-20 18:03:00,88.9,44.0,29.69,WNW,282,8.0,13.0,21,0.00,,,0.00,VWS V14.01,2013-07-21 00:03:00,
2013-07-20 18:09:00,88.6,41.1,29.69,WNW,288,6.0,11.0,19,0.00,,,0.00,VPLive 1.2.5.27,2013-07-21 00:09:00,
2013-07-20 18:14:00,88.7,43.8,29.68,NW,317,17.0,19.0,21,0.00,,,0.00,VWS V14.01,2013-07-21 00:14:00,
2013-07-20 18:19:00,87.8,43.0,29.69,WNW,284,13.0,22.0,21,0.00,,,0.00,VWS V14.01,2013-07-21 00:19:00,
2013-07-20 18:25:00,87.6,44.1,29.68,WNW,303,7.0,22.0,22,0.00,,,0.00,VWS V14.01,2013-07-21 00:25:00,
2013-07-20 18:30:00,87.8,45.4,29.68,West,273,10.0,22.0,23,0.00,,,0.00,VWS V14.01,2013-07-21 00:30:00,
2013-07-20 18:35:00,87.4,43.9,29.68,West,279,11.0,16.0,22,0.00,,,0.00,VWS V14.01,2013-07-21 00:35:00,
2013-07-20 18:41:00,87.1,42.5,29.68,WNW,300,14.0,17.0,21,0.00,,,0.00,VWS V14.01,2013-07-21 00:41:00,
2013-07-20 18:46:00,87.1,42.5,29.68,WNW,302,17.0,17.0,21,0.00,,,0.00,VWS V14.01,2013-07-21 00:46:00,
2013-07-20 18:51:00,86.9,44.6,29.68,West,281,13.0,15.0,23,0.00,,,0.00,VPLive 1.2.5.27,2013-07-21 00:51:00,
2013-07-20 18:56:00,86.8,44.6,29.68,WNW,290,12.0,17.0,23,0.00,,,0.00,VWS V14.01,2013-07-21 00:56:00,
2013-07-20 19:01:00,86.8,43.4,29.68,WNW,288,6.0,13.0,22,0.00,,,0.00,VPLive 1.2.5.27,2013-07-21 01:01:00,
2013-07-20 19:06:00,86.7,43.3,29.68,WNW,290,10.0,17.0,22,0.00,,,0.00,VPLive 1.2.5.27,2013-07-21 01:06:00,
2013-07-20 19:11:00,85.9,44.9,29.68,WNW,290,9.0,14.0,24,0.00,,,0.00,VPLive 1.2.5.27,2013-07-21 01:11:00,
2013-07-20 19:16:00,85.9,43.8,29.68,WNW,286,9.0,17.0,23,0.00,,,0.00,VWS V14.01,2013-07-21 01:16:00,
2013-07-20 19:22:00,86.1,42.8,29.68,NW,321,11.0,17.0,22,0.00,,,0.00,VWS V14.01,2013-07-21 01:22:00,
2013-07-20 19:27:00,86.3,41.8,29.68,NW,318,12.0,17.0,21,0.00,,,0.00,VWS V14.01,2013-07-21 01:27:00,
2013-07-20 19:32:00,86.2,42.9,29.68,NW,304,12.0,15.0,22,0.00,,,0.00,VPLive 1.2.5.27,2013-07-21 01:32:00,
2013-07-20 19:37:00,85.4,43.4,29.68,WNW,294,8.0,15.0,23,0.00,,,0.00,VPLive 1.2.5.27,2013-07-21 01:37:00,
2013-07-20 19:42:00,85.0,45.3,29.68,WNW,297,8.0,16.0,25,0.00,,,0.00,VWS V14.01,2013-07-21 01:42:00,
2013-07-20 19:47:00,84.7,45.0,29.68,West,279,8.0,16.0,25,0.00,,,0.00,VWS V14.01,2013-07-21 01:47:00,
2013-07-20 19:52:00,84.2,44.6,29.68,WNW,286,9.0,12.0,25,0.00,,,0.00,VPLive 1.2.5.27,2013-07-21 01:52:00,
2013-07-20 19:57:00,83.9,43.2,29.68,West,278,9.0,15.0,24,0.00,,,0.00,VPLive 1.2.5.27,2013-07-21 01:57:00,
2013-07-20 20:02:00,83.7,43.1,29.68,WNW,289,7.0,13.0,24,0.00,,,0.00,VWS V14.01,2013-07-21 02:02:00,
2013-07-20 20:07:00,83.4,43.9,29.68,West,269,7.0,13.0,25,0.00,,,0.00,VWS V14.01,2013-07-21 02:07:00,
2013-07-20 20:12:00,83.2,41.5,29.68,WNW,284,8.0,15.0,23,0.00,,,0.00,VPLive 1.2.5.27,2013-07-21 02:12:00,
2013-07-20 20:17:00,83.2,41.5,29.68,West,278,9.0,14.0,23,0.00,,,0.00,VPLive 1.2.5.27,2013-07-21 02:17:00,
2013-07-20 20:22:00,82.9,42.4,29.68,WNW,292,8.0,15.0,24,0.00,,,0.00,VWS V14.01,2013-07-21 02:22:00,
2013-07-20 20:27:00,82.2,42.9,29.69,West,281,5.0,15.0,25,0.00,,,0.00,VWS V14.01,2013-07-21 02:27:00,
2013-07-20 20:33:00,82.2,41.8,29.68,WNW,291,7.0,9.0,24,0.00,,,0.00,VPLive 1.2.5.27,2013-07-21 02:33:00,
2013-07-20 20:38:00,82.1,42.8,29.68,West,281,7.0,9.0,25,0.00,,,0.00,VWS V14.01,2013-07-21 02:38:00,
2013-07-20 20:43:00,81.6,42.4,29.68,West,277,6.0,9.0,25,0.00,,,0.00,VWS V14.01,2013-07-21 02:43:00,
2013-07-20 20:48:00,81.3,41.1,29.68,West,279,7.0,9.0,24,0.00,,,0.00,VWS V14.01,2013-07-21 02:48:00,
2013-07-20 20:53:00,81.3,41.1,29.68,West,277,5.0,9.0,24,0.00,,,0.00,VWS V14.01,2013-07-21 02:53:00,
2013-07-20 20:58:00,81.2,42.1,29.69,WNW,282,7.0,9.0,25,0.00,,,0.00,VWS V14.01,2013-07-21 02:58:00,
2013-07-20 21:03:00,80.6,40.5,29.69,West,278,5.0,7.0,24,0.00,,,0.00,VWS V14.01,2013-07-21 03:03:00,
2013-07-20 21:08:00,79.9,41.0,29.69,West,275,4.0,7.0,25,0.00,,,0.00,VWS V14.01,2013-07-21 03:08:00,
2013-07-20 21:13:00,79.3,41.5,29.69,WNW,284,2.0,7.0,26,0.00,,,0.00,VWS V14.01,2013-07-21 03:13:00,
2013-07-20 21:18:00,78.7,40.9,29.69,WNW,284,4.0,5.0,26,0.00,,,0.00,VPLive 1.2.5.27,2013-07-21 03:18:00,
2013-07-20 21:23:00,78.5,40.7,29.69,WSW,254,4.0,6.0,26,0.00,,,0.00,VPLive 1.2.5.27,2013-07-21 03:23:00,
2013-07-20 21:29:00,78.3,42.5,29.69,West,259,2.0,6.0,28,0.00,,,0.00,VPLive 1.2.5.27,2013-07-21 03:29:00,
2013-07-20 21:34:00,77.3,42.6,29.69,West,259,3.0,4.0,29,0.00,,,0.00,VWS V14.01,2013-07-21 03:34:00,
2013-07-20 21:39:00,76.7,40.2,29.69,West,259,0.0,4.0,27,0.00,,,0.00,VWS V14.01,2013-07-21 03:39:00,
2013-07-20 21:45:00,76.7,40.2,29.70,WSW,247,7.0,9.0,27,0.00,,,0.00,VPLive 1.2.5.27,2013-07-21 03:45:00,
2013-07-20 21:50:00,77.6,40.0,29.70,West,264,6.0,11.0,26,0.00,,,0.00,VPLive 1.2.5.27,2013-07-21 03:50:00,
2013-07-20 21:55:00,78.5,39.7,29.70,SW,226,5.0,9.0,25,0.00,,,0.00,VPLive 1.2.5.27,2013-07-21 03:55:00,
2013-07-20 22:00:00,78.1,41.4,29.70,West,269,1.0,7.0,27,0.00,,,0.00,VPLive 1.2.5.27,2013-07-21 04:00:00,
2013-07-20 22:01:00,77.8,40.2,29.70,West,269,1.0,7.0,26,0.00,,,0.00,VPLive 1.2.5.27,2013-07-21 04:01:00,
2013-07-20 22:06:00,75.6,40.2,29.70,West,267,3.0,5.0,28,0.00,,,0.00,VWS V14.01,2013-07-21 04:06:00,
2013-07-20 22:12:00,74.8,39.5,29.70,SW,225,4.0,8.0,28,0.00,,,0.00,VWS V14.01,2013-07-21 04:12:00,
2013-07-20 22:17:00,76.3,39.9,29.70,WSW,248,12.0,12.0,27,0.00,,,0.00,VWS V14.01,2013-07-21 04:17:00,
2013-07-20 22:22:00,75.1,43.3,29.71,West,270,3.0,12.0,32,0.00,,,0.00,VWS V14.01,2013-07-21 04:22:00,
2013-07-20 22:27:00,71.5,45.3,29.70,West,271,3.0,12.0,39,0.00,,,0.00,VWS V14.01,2013-07-21 04:27:00,
2013-07-20 22:32:00,69.4,40.6,29.70,West,270,4.0,5.0,35,0.00,,,0.00,VWS V14.01,2013-07-21 04:32:00,
2013-07-20 22:37:00,69.5,39.2,29.70,WSW,237,3.0,9.0,33,0.00,,,0.00,VWS V14.01,2013-07-21 04:37:00,
2013-07-20 22:42:00,70.7,40.2,29.71,West,279,5.0,9.0,33,0.00,,,0.00,VWS V14.01,2013-07-21 04:42:00,
2013-07-20 22:47:00,70.2,40.5,29.71,West,277,3.0,9.0,34,0.00,,,0.00,VWS V14.01,2013-07-21 04:47:00,
2013-07-20 22:52:00,70.3,39.9,29.71,West,271,3.0,9.0,33,0.00,,,0.00,VWS V14.01,2013-07-21 04:52:00,
2013-07-20 22:57:00,70.5,40.0,29.71,West,273,3.0,10.0,33,0.00,,,0.00,VWS V14.01,2013-07-21 04:57:00,
2013-07-20 23:02:00,70.7,39.4,29.71,West,270,4.0,6.0,32,0.00,,,0.00,VWS V14.01,2013-07-21 05:02:00,
2013-07-20 23:07:00,71.0,40.5,29.70,West,259,3.0,6.0,33,0.00,,,0.00,VWS V14.01,2013-07-21 05:07:00,
2013-07-20 23:12:00,70.8,40.3,29.70,West,271,5.0,7.0,33,0.00,,,0.00,VWS V14.01,2013-07-21 05:12:00,
2013-07-20 23:17:00,70.6,39.3,29.70,West,263,1.0,7.0,32,0.00,,,0.00,VWS V14.01,2013-07-21 05:17:00,
2013-07-20 23:22:00,70.4,40.0,29.70,WNW,282,3.0,7.0,33,0.00,,,0.00,VWS V14.01,2013-07-21 05:22:00,
2013-07-20 23:27:00,69.6,40.8,29.70,West,276,4.0,7.0,35,0.00,,,0.00,VWS V14.01,2013-07-21 05:27:00,
2013-07-20 23:32:00,68.9,40.2,29.70,West,274,3.0,4.0,35,0.00,,,0.00,VWS V14.01,2013-07-21 05:32:00,
2013-07-20 23:37:00,68.6,39.9,29.70,West,278,4.0,6.0,35,0.00,,,0.00,VWS V14.01,2013-07-21 05:37:00,
2013-07-20 23:42:00,68.5,39.8,29.70,West,277,4.0,8.0,35,0.00,,,0.00,VWS V14.01,2013-07-21 05:42:00,
2013-07-20 23:47:00,68.3,39.6,29.70,West,278,2.0,8.0,35,0.00,,,0.00,VWS V14.01,2013-07-21 05:47:00,
2013-07-20 23:52:00,68.2,39.5,29.70,West,278,2.0,8.0,35,0.00,,,0.00,VWS V14.01,2013-07-21 05:52:00,
2013-07-20 23:57:00,67.9,40.0,29.70,West,278,0.0,8.0,36,0.00,,,0.00,VWS V14.01,2013-07-21 05:57:00,